sensor_id;sensor_type;location;lat;lon;timestamp;P1;durP1;ratioP1;P2;durP2;ratioP2
9940;SDS011;5009;50.656;7.188;2023-11-19T00:01:55;0.80;;;0.80;;
9940;SDS011;5009;50.656;7.188;2023-11-19T00:04:22;1.30;;;1.20;;
9940;SDS011;5009;50.656;7.188;2023-11-19T00:06:48;0.90;;;0.90;;
9940;SDS011;5009;50.656;7.188;2023-11-19T00:09:13;1.27;;;1.17;;
9940;SDS011;5009;50.656;7.188;2023-11-19T00:11:41;0.90;;;0.90;;
9940;SDS011;5009;50.656;7.188;2023-11-19T00:14:07;1.30;;;1.20;;
9940;SDS011;5009;50.656;7.188;2023-11-19T00:16:33;2.40;;;1.40;;
9940;SDS011;5009;50.656;7.188;2023-11-19T00:18:59;1.63;;;1.10;;
9940;SDS011;5009;50.656;7.188;2023-11-19T00:21:25;1.30;;;1.13;;
9940;SDS011;5009;50.656;7.188;2023-11-19T00:23:53;1.33;;;1.10;;
9940;SDS011;5009;50.656;7.188;2023-11-19T00:26:19;1.30;;;1.20;;
9940;SDS011;5009;50.656;7.188;2023-11-19T00:28:45;1.00;;;1.00;;
9940;SDS011;5009;50.656;7.188;2023-11-19T00:31:12;1.13;;;1.10;;
9940;SDS011;5009;50.656;7.188;2023-11-19T00:33:38;2.97;;;1.60;;
9940;SDS011;5009;50.656;7.188;2023-11-19T00:36:04;1.40;;;1.40;;
9940;SDS011;5009;50.656;7.188;2023-11-19T00:38:30;2.23;;;1.53;;
9940;SDS011;5009;50.656;7.188;2023-11-19T00:40:56;1.80;;;1.70;;
9940;SDS011;5009;50.656;7.188;2023-11-19T00:43:21;1.47;;;1.37;;
9940;SDS011;5009;50.656;7.188;2023-11-19T00:45:47;1.77;;;1.23;;
9940;SDS011;5009;50.656;7.188;2023-11-19T00:48:15;1.23;;;1.10;;
9940;SDS011;5009;50.656;7.188;2023-11-19T00:50:41;1.40;;;1.30;;
9940;SDS011;5009;50.656;7.188;2023-11-19T00:53:09;1.17;;;1.07;;
9940;SDS011;5009;50.656;7.188;2023-11-19T00:55:34;1.27;;;1.07;;
9940;SDS011;5009;50.656;7.188;2023-11-19T00:58:00;1.10;;;1.10;;
9940;SDS011;5009;50.656;7.188;2023-11-19T01:00:25;0.90;;;0.90;;
9940;SDS011;5009;50.656;7.188;2023-11-19T01:02:52;1.10;;;1.10;;
9940;SDS011;5009;50.656;7.188;2023-11-19T01:05:18;1.40;;;1.00;;
9940;SDS011;5009;50.656;7.188;2023-11-19T01:07:47;1.10;;;0.90;;
9940;SDS011;5009;50.656;7.188;2023-11-19T01:10:13;0.93;;;0.93;;
9940;SDS011;5009;50.656;7.188;2023-11-19T01:12:40;0.63;;;0.63;;
9940;SDS011;5009;50.656;7.188;2023-11-19T01:15:07;0.70;;;0.70;;
9940;SDS011;5009;50.656;7.188;2023-11-19T01:17:33;0.80;;;0.80;;
9940;SDS011;5009;50.656;7.188;2023-11-19T01:19:58;0.50;;;0.50;;
9940;SDS011;5009;50.656;7.188;2023-11-19T01:22:24;0.80;;;0.80;;
9940;SDS011;5009;50.656;7.188;2023-11-19T01:24:49;0.53;;;0.53;;
9940;SDS011;5009;50.656;7.188;2023-11-19T01:27:17;1.10;;;1.00;;
9940;SDS011;5009;50.656;7.188;2023-11-19T01:29:42;1.10;;;1.10;;
9940;SDS011;5009;50.656;7.188;2023-11-19T01:32:08;1.20;;;1.00;;
9940;SDS011;5009;50.656;7.188;2023-11-19T01:34:33;1.37;;;1.27;;
9940;SDS011;5009;50.656;7.188;2023-11-19T01:37:00;1.20;;;1.20;;
9940;SDS011;5009;50.656;7.188;2023-11-19T01:39:25;1.20;;;1.20;;
9940;SDS011;5009;50.656;7.188;2023-11-19T01:41:51;2.00;;;1.00;;
9940;SDS011;5009;50.656;7.188;2023-11-19T01:44:16;1.60;;;1.50;;
9940;SDS011;5009;50.656;7.188;2023-11-19T01:46:44;1.50;;;1.40;;
9940;SDS011;5009;50.656;7.188;2023-11-19T01:49:13;1.13;;;1.00;;
9940;SDS011;5009;50.656;7.188;2023-11-19T01:51:40;1.10;;;1.00;;
9940;SDS011;5009;50.656;7.188;2023-11-19T01:54:07;3.37;;;1.50;;
9940;SDS011;5009;50.656;7.188;2023-11-19T01:56:33;1.40;;;1.20;;
9940;SDS011;5009;50.656;7.188;2023-11-19T01:58:59;2.33;;;1.30;;
9940;SDS011;5009;50.656;7.188;2023-11-19T02:01:25;1.20;;;1.10;;
9940;SDS011;5009;50.656;7.188;2023-11-19T02:03:52;1.50;;;1.40;;
9940;SDS011;5009;50.656;7.188;2023-11-19T02:06:18;1.40;;;1.40;;
9940;SDS011;5009;50.656;7.188;2023-11-19T02:08:43;2.90;;;1.50;;
9940;SDS011;5009;50.656;7.188;2023-11-19T02:11:09;1.57;;;1.47;;
9940;SDS011;5009;50.656;7.188;2023-11-19T02:13:37;1.87;;;1.60;;
9940;SDS011;5009;50.656;7.188;2023-11-19T02:16:03;1.90;;;1.80;;
9940;SDS011;5009;50.656;7.188;2023-11-19T02:18:29;2.17;;;2.00;;
9940;SDS011;5009;50.656;7.188;2023-11-19T02:20:55;2.03;;;1.93;;
9940;SDS011;5009;50.656;7.188;2023-11-19T02:23:21;2.17;;;2.07;;
9940;SDS011;5009;50.656;7.188;2023-11-19T02:25:50;1.50;;;1.40;;
9940;SDS011;5009;50.656;7.188;2023-11-19T02:28:24;4.47;;;2.27;;
9940;SDS011;5009;50.656;7.188;2023-11-19T02:30:50;2.57;;;2.03;;
9940;SDS011;5009;50.656;7.188;2023-11-19T02:33:15;2.23;;;1.90;;
9940;SDS011;5009;50.656;7.188;2023-11-19T02:35:41;3.47;;;1.90;;
9940;SDS011;5009;50.656;7.188;2023-11-19T02:38:07;2.23;;;2.00;;
9940;SDS011;5009;50.656;7.188;2023-11-19T02:40:32;2.20;;;1.70;;
9940;SDS011;5009;50.656;7.188;2023-11-19T02:42:58;2.03;;;1.57;;
9940;SDS011;5009;50.656;7.188;2023-11-19T02:45:24;1.70;;;1.60;;
9940;SDS011;5009;50.656;7.188;2023-11-19T02:47:51;2.93;;;1.70;;
9940;SDS011;5009;50.656;7.188;2023-11-19T02:50:20;2.10;;;1.60;;
9940;SDS011;5009;50.656;7.188;2023-11-19T02:52:53;1.90;;;1.50;;
9940;SDS011;5009;50.656;7.188;2023-11-19T02:55:24;1.83;;;1.73;;
9940;SDS011;5009;50.656;7.188;2023-11-19T02:57:50;1.70;;;1.60;;
9940;SDS011;5009;50.656;7.188;2023-11-19T03:00:18;2.50;;;1.70;;
9940;SDS011;5009;50.656;7.188;2023-11-19T03:02:48;2.60;;;1.30;;
9940;SDS011;5009;50.656;7.188;2023-11-19T03:05:23;2.40;;;1.50;;
9940;SDS011;5009;50.656;7.188;2023-11-19T03:07:49;1.17;;;1.10;;
9940;SDS011;5009;50.656;7.188;2023-11-19T03:10:15;1.20;;;1.17;;
9940;SDS011;5009;50.656;7.188;2023-11-19T03:12:40;1.90;;;1.33;;
9940;SDS011;5009;50.656;7.188;2023-11-19T03:15:06;1.10;;;1.10;;
9940;SDS011;5009;50.656;7.188;2023-11-19T03:17:35;2.00;;;1.37;;
9940;SDS011;5009;50.656;7.188;2023-11-19T03:20:01;2.57;;;1.37;;
9940;SDS011;5009;50.656;7.188;2023-11-19T03:22:31;2.60;;;1.37;;
9940;SDS011;5009;50.656;7.188;2023-11-19T03:24:59;1.30;;;1.17;;
9940;SDS011;5009;50.656;7.188;2023-11-19T03:27:24;1.20;;;1.13;;
9940;SDS011;5009;50.656;7.188;2023-11-19T03:29:50;1.83;;;1.00;;
9940;SDS011;5009;50.656;7.188;2023-11-19T03:32:15;1.20;;;1.10;;
9940;SDS011;5009;50.656;7.188;2023-11-19T03:34:41;1.10;;;1.10;;
9940;SDS011;5009;50.656;7.188;2023-11-19T03:37:06;1.93;;;1.10;;
9940;SDS011;5009;50.656;7.188;2023-11-19T03:39:32;1.67;;;0.97;;
9940;SDS011;5009;50.656;7.188;2023-11-19T03:41:58;4.33;;;1.10;;
9940;SDS011;5009;50.656;7.188;2023-11-19T03:44:23;1.10;;;0.97;;
9940;SDS011;5009;50.656;7.188;2023-11-19T03:46:51;1.03;;;0.80;;
9940;SDS011;5009;50.656;7.188;2023-11-19T03:49:17;0.90;;;0.80;;
9940;SDS011;5009;50.656;7.188;2023-11-19T03:51:42;2.60;;;0.97;;
9940;SDS011;5009;50.656;7.188;2023-11-19T03:54:08;0.77;;;0.77;;
9940;SDS011;5009;50.656;7.188;2023-11-19T03:56:33;1.10;;;1.00;;
9940;SDS011;5009;50.656;7.188;2023-11-19T03:58:59;2.20;;;1.10;;
9940;SDS011;5009;50.656;7.188;2023-11-19T04:01:24;1.33;;;0.93;;
9940;SDS011;5009;50.656;7.188;2023-11-19T04:03:50;1.30;;;1.20;;
9940;SDS011;5009;50.656;7.188;2023-11-19T04:06:15;1.10;;;1.00;;
9940;SDS011;5009;50.656;7.188;2023-11-19T04:08:41;1.20;;;0.83;;
9940;SDS011;5009;50.656;7.188;2023-11-19T04:11:06;2.60;;;0.97;;
9940;SDS011;5009;50.656;7.188;2023-11-19T04:13:33;2.03;;;1.20;;
9940;SDS011;5009;50.656;7.188;2023-11-19T04:15:59;2.00;;;1.23;;
9940;SDS011;5009;50.656;7.188;2023-11-19T04:18:25;2.10;;;1.10;;
9940;SDS011;5009;50.656;7.188;2023-11-19T04:20:50;3.67;;;1.30;;
9940;SDS011;5009;50.656;7.188;2023-11-19T04:23:16;1.40;;;1.30;;
9940;SDS011;5009;50.656;7.188;2023-11-19T04:25:41;2.50;;;1.30;;
9940;SDS011;5009;50.656;7.188;2023-11-19T04:28:07;1.10;;;1.10;;
9940;SDS011;5009;50.656;7.188;2023-11-19T04:30:33;2.10;;;1.50;;
9940;SDS011;5009;50.656;7.188;2023-11-19T04:33:00;1.33;;;1.27;;
9940;SDS011;5009;50.656;7.188;2023-11-19T04:35:26;1.40;;;1.30;;
9940;SDS011;5009;50.656;7.188;2023-11-19T04:37:51;1.97;;;1.53;;
9940;SDS011;5009;50.656;7.188;2023-11-19T04:40:17;3.30;;;1.40;;
9940;SDS011;5009;50.656;7.188;2023-11-19T04:42:47;2.67;;;1.33;;
9940;SDS011;5009;50.656;7.188;2023-11-19T04:45:13;1.20;;;1.17;;
9940;SDS011;5009;50.656;7.188;2023-11-19T04:47:38;2.93;;;1.27;;
9940;SDS011;5009;50.656;7.188;2023-11-19T04:50:04;2.57;;;1.40;;
9940;SDS011;5009;50.656;7.188;2023-11-19T04:52:30;1.60;;;1.50;;
9940;SDS011;5009;50.656;7.188;2023-11-19T04:54:56;1.30;;;1.20;;
9940;SDS011;5009;50.656;7.188;2023-11-19T04:57:21;1.30;;;1.00;;
9940;SDS011;5009;50.656;7.188;2023-11-19T04:59:47;3.53;;;1.50;;
9940;SDS011;5009;50.656;7.188;2023-11-19T05:02:12;1.70;;;1.30;;
9940;SDS011;5009;50.656;7.188;2023-11-19T05:04:42;1.67;;;1.10;;
9940;SDS011;5009;50.656;7.188;2023-11-19T05:07:11;2.30;;;1.37;;
9940;SDS011;5009;50.656;7.188;2023-11-19T05:09:37;1.67;;;1.27;;
9940;SDS011;5009;50.656;7.188;2023-11-19T05:12:02;1.80;;;1.27;;
9940;SDS011;5009;50.656;7.188;2023-11-19T05:14:28;1.43;;;1.30;;
9940;SDS011;5009;50.656;7.188;2023-11-19T05:16:54;4.13;;;1.20;;
9940;SDS011;5009;50.656;7.188;2023-11-19T05:19:19;1.87;;;1.10;;
9940;SDS011;5009;50.656;7.188;2023-11-19T05:21:45;5.00;;;1.50;;
9940;SDS011;5009;50.656;7.188;2023-11-19T05:24:10;3.60;;;1.50;;
9940;SDS011;5009;50.656;7.188;2023-11-19T05:26:39;2.27;;;1.60;;
9940;SDS011;5009;50.656;7.188;2023-11-19T05:29:05;3.47;;;2.10;;
9940;SDS011;5009;50.656;7.188;2023-11-19T05:31:31;5.43;;;2.50;;
9940;SDS011;5009;50.656;7.188;2023-11-19T05:33:56;2.93;;;2.73;;
9940;SDS011;5009;50.656;7.188;2023-11-19T05:36:22;5.63;;;3.23;;
9940;SDS011;5009;50.656;7.188;2023-11-19T05:38:47;4.73;;;3.80;;
9940;SDS011;5009;50.656;7.188;2023-11-19T05:41:13;4.40;;;3.73;;
9940;SDS011;5009;50.656;7.188;2023-11-19T05:43:39;8.17;;;5.60;;
9940;SDS011;5009;50.656;7.188;2023-11-19T05:46:05;9.20;;;6.57;;
9940;SDS011;5009;50.656;7.188;2023-11-19T05:48:31;9.33;;;5.00;;
9940;SDS011;5009;50.656;7.188;2023-11-19T05:50:58;11.43;;;6.23;;
9940;SDS011;5009;50.656;7.188;2023-11-19T05:53:23;7.93;;;5.40;;
9940;SDS011;5009;50.656;7.188;2023-11-19T05:55:49;7.23;;;4.90;;
9940;SDS011;5009;50.656;7.188;2023-11-19T05:58:29;10.40;;;5.87;;
9940;SDS011;5009;50.656;7.188;2023-11-19T06:00:55;8.77;;;7.87;;
9940;SDS011;5009;50.656;7.188;2023-11-19T06:03:22;9.83;;;8.50;;
9940;SDS011;5009;50.656;7.188;2023-11-19T06:05:47;9.87;;;7.93;;
9940;SDS011;5009;50.656;7.188;2023-11-19T06:08:14;7.90;;;6.97;;
9940;SDS011;5009;50.656;7.188;2023-11-19T06:10:43;6.13;;;4.07;;
9940;SDS011;5009;50.656;7.188;2023-11-19T06:13:11;4.97;;;3.30;;
9940;SDS011;5009;50.656;7.188;2023-11-19T06:15:40;4.63;;;2.90;;
9940;SDS011;5009;50.656;7.188;2023-11-19T06:18:09;5.63;;;4.07;;
9940;SDS011;5009;50.656;7.188;2023-11-19T06:20:36;8.87;;;3.37;;
9940;SDS011;5009;50.656;7.188;2023-11-19T06:23:02;6.53;;;3.63;;
9940;SDS011;5009;50.656;7.188;2023-11-19T06:25:27;8.80;;;5.10;;
9940;SDS011;5009;50.656;7.188;2023-11-19T06:27:53;10.83;;;7.67;;
9940;SDS011;5009;50.656;7.188;2023-11-19T06:30:19;15.47;;;13.37;;
9940;SDS011;5009;50.656;7.188;2023-11-19T06:32:45;12.97;;;9.83;;
9940;SDS011;5009;50.656;7.188;2023-11-19T06:35:11;10.77;;;9.57;;
9940;SDS011;5009;50.656;7.188;2023-11-19T06:37:38;16.43;;;9.77;;
9940;SDS011;5009;50.656;7.188;2023-11-19T06:40:05;11.80;;;8.03;;
9940;SDS011;5009;50.656;7.188;2023-11-19T06:42:31;9.83;;;5.97;;
9940;SDS011;5009;50.656;7.188;2023-11-19T06:44:57;10.07;;;5.40;;
9940;SDS011;5009;50.656;7.188;2023-11-19T06:47:27;10.20;;;4.20;;
9940;SDS011;5009;50.656;7.188;2023-11-19T06:49:53;11.30;;;4.53;;
9940;SDS011;5009;50.656;7.188;2023-11-19T06:52:19;12.90;;;4.40;;
9940;SDS011;5009;50.656;7.188;2023-11-19T06:54:45;10.20;;;4.23;;
9940;SDS011;5009;50.656;7.188;2023-11-19T06:57:11;9.70;;;4.40;;
9940;SDS011;5009;50.656;7.188;2023-11-19T06:59:36;13.77;;;4.87;;
9940;SDS011;5009;50.656;7.188;2023-11-19T07:02:02;8.13;;;3.70;;
9940;SDS011;5009;50.656;7.188;2023-11-19T07:04:29;8.60;;;3.87;;
9940;SDS011;5009;50.656;7.188;2023-11-19T07:06:55;10.27;;;4.30;;
9940;SDS011;5009;50.656;7.188;2023-11-19T07:09:21;11.87;;;5.17;;
9940;SDS011;5009;50.656;7.188;2023-11-19T07:11:48;10.07;;;4.57;;
9940;SDS011;5009;50.656;7.188;2023-11-19T07:14:15;10.33;;;4.23;;
9940;SDS011;5009;50.656;7.188;2023-11-19T07:16:41;10.80;;;3.73;;
9940;SDS011;5009;50.656;7.188;2023-11-19T07:19:07;11.73;;;4.60;;
9940;SDS011;5009;50.656;7.188;2023-11-19T07:21:33;10.90;;;4.43;;
9940;SDS011;5009;50.656;7.188;2023-11-19T07:23:59;13.27;;;4.37;;
9940;SDS011;5009;50.656;7.188;2023-11-19T07:26:25;12.97;;;4.10;;
9940;SDS011;5009;50.656;7.188;2023-11-19T07:28:51;15.57;;;4.60;;
9940;SDS011;5009;50.656;7.188;2023-11-19T07:31:17;12.43;;;4.20;;
9940;SDS011;5009;50.656;7.188;2023-11-19T07:33:44;11.70;;;4.13;;
9940;SDS011;5009;50.656;7.188;2023-11-19T07:36:11;14.47;;;5.93;;
9940;SDS011;5009;50.656;7.188;2023-11-19T07:38:37;13.90;;;5.93;;
9940;SDS011;5009;50.656;7.188;2023-11-19T07:41:03;9.00;;;5.20;;
9940;SDS011;5009;50.656;7.188;2023-11-19T07:43:34;13.80;;;6.67;;
9940;SDS011;5009;50.656;7.188;2023-11-19T07:46:00;14.57;;;6.73;;
9940;SDS011;5009;50.656;7.188;2023-11-19T07:48:26;14.70;;;6.97;;
9940;SDS011;5009;50.656;7.188;2023-11-19T07:50:52;16.83;;;6.83;;
9940;SDS011;5009;50.656;7.188;2023-11-19T07:53:18;13.87;;;5.37;;
9940;SDS011;5009;50.656;7.188;2023-11-19T07:55:44;12.10;;;5.60;;
9940;SDS011;5009;50.656;7.188;2023-11-19T08:00:45;18.33;;;7.70;;
9940;SDS011;5009;50.656;7.188;2023-11-19T08:03:10;16.20;;;10.17;;
9940;SDS011;5009;50.656;7.188;2023-11-19T08:05:36;14.70;;;7.00;;
9940;SDS011;5009;50.656;7.188;2023-11-19T08:08:01;16.47;;;7.20;;
9940;SDS011;5009;50.656;7.188;2023-11-19T08:10:27;17.13;;;7.73;;
9940;SDS011;5009;50.656;7.188;2023-11-19T08:12:53;14.83;;;5.77;;
9940;SDS011;5009;50.656;7.188;2023-11-19T08:15:19;13.90;;;5.70;;
9940;SDS011;5009;50.656;7.188;2023-11-19T08:17:44;11.30;;;4.87;;
9940;SDS011;5009;50.656;7.188;2023-11-19T08:20:10;9.40;;;4.17;;
9940;SDS011;5009;50.656;7.188;2023-11-19T08:22:36;12.43;;;4.30;;
9940;SDS011;5009;50.656;7.188;2023-11-19T08:25:03;13.03;;;4.70;;
9940;SDS011;5009;50.656;7.188;2023-11-19T08:27:29;12.60;;;4.00;;
9940;SDS011;5009;50.656;7.188;2023-11-19T08:29:55;12.80;;;4.63;;
9940;SDS011;5009;50.656;7.188;2023-11-19T08:32:22;11.30;;;3.50;;
9940;SDS011;5009;50.656;7.188;2023-11-19T08:34:48;13.50;;;4.70;;
9940;SDS011;5009;50.656;7.188;2023-11-19T08:37:13;13.07;;;3.93;;
9940;SDS011;5009;50.656;7.188;2023-11-19T08:39:39;16.37;;;4.53;;
9940;SDS011;5009;50.656;7.188;2023-11-19T08:42:06;17.67;;;4.33;;
9940;SDS011;5009;50.656;7.188;2023-11-19T08:44:31;12.43;;;4.20;;
9940;SDS011;5009;50.656;7.188;2023-11-19T08:46:57;14.80;;;3.90;;
9940;SDS011;5009;50.656;7.188;2023-11-19T08:49:22;12.37;;;4.43;;
9940;SDS011;5009;50.656;7.188;2023-11-19T08:51:48;10.77;;;4.20;;
9940;SDS011;5009;50.656;7.188;2023-11-19T08:54:14;10.83;;;4.70;;
9940;SDS011;5009;50.656;7.188;2023-11-19T08:56:39;13.00;;;4.77;;
9940;SDS011;5009;50.656;7.188;2023-11-19T08:59:05;12.30;;;3.80;;
9940;SDS011;5009;50.656;7.188;2023-11-19T09:01:31;17.20;;;4.73;;
9940;SDS011;5009;50.656;7.188;2023-11-19T09:03:56;13.13;;;4.37;;
9940;SDS011;5009;50.656;7.188;2023-11-19T09:06:22;15.47;;;5.30;;
9940;SDS011;5009;50.656;7.188;2023-11-19T09:08:48;17.63;;;5.23;;
9940;SDS011;5009;50.656;7.188;2023-11-19T09:11:13;12.70;;;4.43;;
9940;SDS011;5009;50.656;7.188;2023-11-19T09:13:39;17.07;;;4.93;;
9940;SDS011;5009;50.656;7.188;2023-11-19T09:16:04;14.93;;;4.77;;
9940;SDS011;5009;50.656;7.188;2023-11-19T09:18:30;16.17;;;4.43;;
9940;SDS011;5009;50.656;7.188;2023-11-19T09:20:56;16.20;;;5.00;;
9940;SDS011;5009;50.656;7.188;2023-11-19T09:23:22;14.80;;;4.17;;
9940;SDS011;5009;50.656;7.188;2023-11-19T09:25:50;15.00;;;4.87;;
9940;SDS011;5009;50.656;7.188;2023-11-19T09:28:15;14.33;;;5.03;;
9940;SDS011;5009;50.656;7.188;2023-11-19T09:30:41;14.20;;;4.90;;
9940;SDS011;5009;50.656;7.188;2023-11-19T09:33:06;14.53;;;5.00;;
9940;SDS011;5009;50.656;7.188;2023-11-19T09:35:32;15.70;;;4.63;;
9940;SDS011;5009;50.656;7.188;2023-11-19T09:37:58;17.43;;;5.17;;
9940;SDS011;5009;50.656;7.188;2023-11-19T09:40:24;11.17;;;4.53;;
9940;SDS011;5009;50.656;7.188;2023-11-19T09:42:49;13.93;;;5.20;;
9940;SDS011;5009;50.656;7.188;2023-11-19T09:45:16;12.87;;;4.80;;
9940;SDS011;5009;50.656;7.188;2023-11-19T09:47:46;13.43;;;4.93;;
9940;SDS011;5009;50.656;7.188;2023-11-19T09:50:14;18.90;;;5.20;;
9940;SDS011;5009;50.656;7.188;2023-11-19T09:52:43;13.50;;;4.90;;
9940;SDS011;5009;50.656;7.188;2023-11-19T09:55:10;17.00;;;5.20;;
9940;SDS011;5009;50.656;7.188;2023-11-19T09:57:36;18.87;;;5.37;;
9940;SDS011;5009;50.656;7.188;2023-11-19T10:00:04;14.67;;;5.27;;
9940;SDS011;5009;50.656;7.188;2023-11-19T10:02:34;11.57;;;4.57;;
9940;SDS011;5009;50.656;7.188;2023-11-19T10:05:02;14.37;;;4.70;;
9940;SDS011;5009;50.656;7.188;2023-11-19T10:07:31;12.37;;;4.90;;
9940;SDS011;5009;50.656;7.188;2023-11-19T10:09:58;15.63;;;5.03;;
9940;SDS011;5009;50.656;7.188;2023-11-19T10:12:30;18.03;;;5.23;;
9940;SDS011;5009;50.656;7.188;2023-11-19T10:14:56;22.10;;;5.70;;
9940;SDS011;5009;50.656;7.188;2023-11-19T10:17:33;14.43;;;4.67;;
9940;SDS011;5009;50.656;7.188;2023-11-19T10:19:59;14.27;;;4.40;;
9940;SDS011;5009;50.656;7.188;2023-11-19T10:22:27;16.63;;;5.77;;
9940;SDS011;5009;50.656;7.188;2023-11-19T10:24:53;13.97;;;5.20;;
9940;SDS011;5009;50.656;7.188;2023-11-19T10:27:18;14.70;;;4.80;;
9940;SDS011;5009;50.656;7.188;2023-11-19T10:29:47;16.13;;;5.63;;
9940;SDS011;5009;50.656;7.188;2023-11-19T10:32:14;17.17;;;5.47;;
9940;SDS011;5009;50.656;7.188;2023-11-19T10:34:42;16.00;;;4.73;;
9940;SDS011;5009;50.656;7.188;2023-11-19T10:37:08;18.07;;;5.50;;
9940;SDS011;5009;50.656;7.188;2023-11-19T10:39:52;18.70;;;5.67;;
9940;SDS011;5009;50.656;7.188;2023-11-19T10:42:22;19.73;;;5.73;;
9940;SDS011;5009;50.656;7.188;2023-11-19T10:44:47;13.73;;;5.40;;
9940;SDS011;5009;50.656;7.188;2023-11-19T10:47:18;14.90;;;4.80;;
9940;SDS011;5009;50.656;7.188;2023-11-19T10:49:44;19.50;;;5.23;;
9940;SDS011;5009;50.656;7.188;2023-11-19T10:52:17;13.03;;;4.57;;
9940;SDS011;5009;50.656;7.188;2023-11-19T10:54:49;14.53;;;4.77;;
9940;SDS011;5009;50.656;7.188;2023-11-19T10:57:19;15.67;;;5.03;;
9940;SDS011;5009;50.656;7.188;2023-11-19T10:59:49;9.97;;;4.87;;
9940;SDS011;5009;50.656;7.188;2023-11-19T11:02:26;12.73;;;4.93;;
9940;SDS011;5009;50.656;7.188;2023-11-19T11:04:53;17.50;;;5.03;;
9940;SDS011;5009;50.656;7.188;2023-11-19T11:07:21;15.67;;;5.10;;
9940;SDS011;5009;50.656;7.188;2023-11-19T11:09:51;15.17;;;5.30;;
9940;SDS011;5009;50.656;7.188;2023-11-19T11:12:17;13.85;;;4.18;;
9940;SDS011;5009;50.656;7.188;2023-11-19T11:14:48;12.77;;;4.47;;
9940;SDS011;5009;50.656;7.188;2023-11-19T11:17:15;13.57;;;4.13;;
9940;SDS011;5009;50.656;7.188;2023-11-19T11:19:43;11.18;;;4.28;;
9940;SDS011;5009;50.656;7.188;2023-11-19T11:22:09;16.95;;;4.95;;
9940;SDS011;5009;50.656;7.188;2023-11-19T11:30:35;13.13;;;4.73;;
9940;SDS011;5009;50.656;7.188;2023-11-19T11:36:28;13.43;;;4.93;;
9940;SDS011;5009;50.656;7.188;2023-11-19T11:38:48;14.90;;;4.80;;
9940;SDS011;5009;50.656;7.188;2023-11-19T11:41:24;18.52;;;5.28;;
9940;SDS011;5009;50.656;7.188;2023-11-19T11:43:51;12.30;;;4.13;;
9940;SDS011;5009;50.656;7.188;2023-11-19T11:46:53;10.90;;;4.23;;
9940;SDS011;5009;50.656;7.188;2023-11-19T11:49:06;11.90;;;4.03;;
9940;SDS011;5009;50.656;7.188;2023-11-19T11:57:00;12.70;;;4.30;;
9940;SDS011;5009;50.656;7.188;2023-11-19T11:59:42;15.50;;;4.70;;
9940;SDS011;5009;50.656;7.188;2023-11-19T12:02:28;15.70;;;4.33;;
9940;SDS011;5009;50.656;7.188;2023-11-19T12:04:55;11.43;;;4.50;;
9940;SDS011;5009;50.656;7.188;2023-11-19T12:07:22;14.53;;;4.93;;
9940;SDS011;5009;50.656;7.188;2023-11-19T12:09:52;11.00;;;4.10;;
9940;SDS011;5009;50.656;7.188;2023-11-19T12:12:32;11.50;;;4.70;;
9940;SDS011;5009;50.656;7.188;2023-11-19T12:20:02;12.37;;;4.93;;
9940;SDS011;5009;50.656;7.188;2023-11-19T12:22:31;15.83;;;4.90;;
9940;SDS011;5009;50.656;7.188;2023-11-19T12:24:56;13.67;;;5.10;;
9940;SDS011;5009;50.656;7.188;2023-11-19T12:27:23;12.17;;;4.40;;
9940;SDS011;5009;50.656;7.188;2023-11-19T12:29:48;14.73;;;4.53;;
9940;SDS011;5009;50.656;7.188;2023-11-19T12:32:14;14.70;;;4.50;;
9940;SDS011;5009;50.656;7.188;2023-11-19T12:34:40;15.97;;;4.20;;
9940;SDS011;5009;50.656;7.188;2023-11-19T12:37:06;9.00;;;3.77;;
9940;SDS011;5009;50.656;7.188;2023-11-19T12:39:32;12.03;;;4.07;;
9940;SDS011;5009;50.656;7.188;2023-11-19T12:41:58;11.47;;;4.40;;
9940;SDS011;5009;50.656;7.188;2023-11-19T12:44:26;12.70;;;4.67;;
9940;SDS011;5009;50.656;7.188;2023-11-19T12:47:04;11.33;;;3.50;;
9940;SDS011;5009;50.656;7.188;2023-11-19T12:49:32;9.13;;;3.40;;
9940;SDS011;5009;50.656;7.188;2023-11-19T12:51:58;9.83;;;3.57;;
9940;SDS011;5009;50.656;7.188;2023-11-19T12:54:37;12.47;;;4.33;;
9940;SDS011;5009;50.656;7.188;2023-11-19T12:57:03;10.47;;;3.47;;
9940;SDS011;5009;50.656;7.188;2023-11-19T12:59:30;13.20;;;3.87;;
9940;SDS011;5009;50.656;7.188;2023-11-19T13:01:56;11.50;;;3.67;;
9940;SDS011;5009;50.656;7.188;2023-11-19T13:04:23;16.10;;;3.93;;
9940;SDS011;5009;50.656;7.188;2023-11-19T13:06:52;15.47;;;4.30;;
9940;SDS011;5009;50.656;7.188;2023-11-19T13:09:24;11.70;;;4.17;;
9940;SDS011;5009;50.656;7.188;2023-11-19T13:11:54;12.37;;;4.03;;
9940;SDS011;5009;50.656;7.188;2023-11-19T13:14:21;11.03;;;3.90;;
9940;SDS011;5009;50.656;7.188;2023-11-19T13:16:47;13.80;;;4.40;;
9940;SDS011;5009;50.656;7.188;2023-11-19T13:19:13;13.80;;;4.30;;
9940;SDS011;5009;50.656;7.188;2023-11-19T13:21:39;12.17;;;4.10;;
9940;SDS011;5009;50.656;7.188;2023-11-19T13:24:05;12.60;;;4.90;;
9940;SDS011;5009;50.656;7.188;2023-11-19T13:26:31;11.93;;;3.77;;
9940;SDS011;5009;50.656;7.188;2023-11-19T13:28:57;11.97;;;4.13;;
9940;SDS011;5009;50.656;7.188;2023-11-19T13:31:23;9.20;;;4.40;;
9940;SDS011;5009;50.656;7.188;2023-11-19T13:33:49;12.70;;;4.47;;
9940;SDS011;5009;50.656;7.188;2023-11-19T13:36:14;16.33;;;4.57;;
9940;SDS011;5009;50.656;7.188;2023-11-19T13:38:40;12.17;;;4.37;;
9940;SDS011;5009;50.656;7.188;2023-11-19T13:41:09;13.57;;;4.97;;
9940;SDS011;5009;50.656;7.188;2023-11-19T13:43:35;14.43;;;4.83;;
9940;SDS011;5009;50.656;7.188;2023-11-19T13:46:01;13.97;;;4.93;;
9940;SDS011;5009;50.656;7.188;2023-11-19T13:48:27;9.93;;;4.67;;
9940;SDS011;5009;50.656;7.188;2023-11-19T13:50:54;12.70;;;4.70;;
9940;SDS011;5009;50.656;7.188;2023-11-19T13:53:20;10.80;;;4.00;;
9940;SDS011;5009;50.656;7.188;2023-11-19T13:55:46;9.97;;;4.37;;
9940;SDS011;5009;50.656;7.188;2023-11-19T13:58:12;11.33;;;4.17;;
9940;SDS011;5009;50.656;7.188;2023-11-19T14:00:38;14.10;;;4.30;;
9940;SDS011;5009;50.656;7.188;2023-11-19T14:03:04;14.53;;;5.00;;
9940;SDS011;5009;50.656;7.188;2023-11-19T14:05:30;12.60;;;4.90;;
9940;SDS011;5009;50.656;7.188;2023-11-19T14:07:55;13.30;;;4.40;;
9940;SDS011;5009;50.656;7.188;2023-11-19T14:10:22;11.73;;;5.43;;
9940;SDS011;5009;50.656;7.188;2023-11-19T14:12:47;15.83;;;7.00;;
9940;SDS011;5009;50.656;7.188;2023-11-19T14:15:15;12.67;;;5.00;;
9940;SDS011;5009;50.656;7.188;2023-11-19T14:17:42;13.07;;;4.77;;
9940;SDS011;5009;50.656;7.188;2023-11-19T14:20:08;8.93;;;3.83;;
9940;SDS011;5009;50.656;7.188;2023-11-19T14:22:40;12.17;;;4.33;;
9940;SDS011;5009;50.656;7.188;2023-11-19T14:25:10;11.50;;;4.57;;
9940;SDS011;5009;50.656;7.188;2023-11-19T14:27:36;12.30;;;4.30;;
9940;SDS011;5009;50.656;7.188;2023-11-19T14:30:06;11.57;;;4.33;;
9940;SDS011;5009;50.656;7.188;2023-11-19T14:32:35;11.50;;;4.27;;
9940;SDS011;5009;50.656;7.188;2023-11-19T14:35:01;10.20;;;4.23;;
9940;SDS011;5009;50.656;7.188;2023-11-19T14:37:28;12.17;;;3.83;;
9940;SDS011;5009;50.656;7.188;2023-11-19T14:39:54;14.53;;;4.40;;
9940;SDS011;5009;50.656;7.188;2023-11-19T14:42:20;8.60;;;3.70;;
9940;SDS011;5009;50.656;7.188;2023-11-19T14:44:45;10.70;;;3.93;;
9940;SDS011;5009;50.656;7.188;2023-11-19T14:47:11;10.50;;;4.27;;
9940;SDS011;5009;50.656;7.188;2023-11-19T14:49:37;11.53;;;4.57;;
9940;SDS011;5009;50.656;7.188;2023-11-19T14:52:03;11.07;;;4.00;;
9940;SDS011;5009;50.656;7.188;2023-11-19T14:54:29;9.20;;;4.10;;
9940;SDS011;5009;50.656;7.188;2023-11-19T14:56:55;12.27;;;4.33;;
9940;SDS011;5009;50.656;7.188;2023-11-19T14:59:21;11.33;;;4.33;;
9940;SDS011;5009;50.656;7.188;2023-11-19T15:01:47;12.67;;;4.10;;
9940;SDS011;5009;50.656;7.188;2023-11-19T15:04:12;9.83;;;3.90;;
9940;SDS011;5009;50.656;7.188;2023-11-19T15:06:38;7.40;;;3.77;;
9940;SDS011;5009;50.656;7.188;2023-11-19T15:09:04;7.00;;;3.20;;
9940;SDS011;5009;50.656;7.188;2023-11-19T15:11:30;6.80;;;3.37;;
9940;SDS011;5009;50.656;7.188;2023-11-19T15:13:56;6.77;;;3.00;;
9940;SDS011;5009;50.656;7.188;2023-11-19T15:16:21;8.60;;;3.50;;
9940;SDS011;5009;50.656;7.188;2023-11-19T15:18:55;12.20;;;4.43;;
9940;SDS011;5009;50.656;7.188;2023-11-19T15:21:25;9.63;;;4.37;;
9940;SDS011;5009;50.656;7.188;2023-11-19T15:23:52;5.90;;;3.53;;
9940;SDS011;5009;50.656;7.188;2023-11-19T15:26:17;11.23;;;3.93;;
9940;SDS011;5009;50.656;7.188;2023-11-19T15:28:44;9.70;;;3.77;;